Impacts METAR Board
IDs:

KEWR - Newark Intl, NJ, US

Updated at: 2200 UTC 21 May 2022
Potential Impact None Slight Moderate High
Time 21/10Z 21/11Z 21/12Z 21/13Z 21/14Z 21/15Z 21/16Z 21/17Z 21/18Z 21/19Z 21/20Z 21/21Z 21/22Z
Temp65 65 66 69 75 82 88 92 92 95 94 95 95
Dewpt63 63 64 65 67 69 69 68 68 67 66 64 64
Altim29.96 29.98 30.00 30.03 30.03 30.02 30.01 29.99 29.98 29.98 29.98 29.97 29.98
VIS0.5 0.75 1 5 7 10 10 10 10 10 10 10 10
CIG2 2 3 5 -- -- -- -- -- -- 250 -- --
CoverOVXOVCOVCOVCFEWFEWFEWFEWFEWSCTBKNSCTFEW
FltCatLIFRLIFRLIFRIFRVFRVFRVFRVFRVFRVFRVFRVFRVFR
WXFGFGBRBR------------------
WDir2802602702600170280290190220210230240
WSpd4 5 6 6 0 5 3 4 9 11 13 13 11
WGst-- -- -- -- -- -- -- -- -- -- -- 21 --
Raw hourly METARs
KEWR 210951Z 28004KT 1/2SM R04R/2400V5500FT FG VV002 18/17 A2996 RMK AO2 SLP143 T01830172
KEWR 211051Z 26005KT 3/4SM R04R/2400VP6000FT FG OVC002 18/17 A2998 RMK AO2 SLP151 T01830172
KEWR 211151Z 27006KT 1SM R04R/P6000FT BR OVC003 19/18 A3000 RMK AO2 SLP159 70032 T01890178 10189 20172 53021
KEWR 211251Z 26006KT 5SM BR OVC005 21/18 A3003 RMK AO2 SLP169 T02060183
KEWR 211351Z 00000KT 7SM FEW010 FEW250 24/19 A3003 RMK AO2 SLP167 T02390194
KEWR 211451Z 17005KT 10SM FEW250 28/21 A3002 RMK AO2 SLP166 T02780206 50006
KEWR 211551Z 28003KT 10SM FEW250 31/21 A3001 RMK AO2 SLP162 T03110206
KEWR 211651Z 29004KT 10SM FEW250 33/20 A2999 RMK AO2 SLP154 T03330200
KEWR 211751Z 19009KT 10SM FEW250 33/20 A2998 RMK AO2 SLP153 T03330200 10339 20189 56012
KEWR 211851Z 22011KT 10SM SCT250 35/19 A2998 RMK AO2 SLP152 T03500194
KEWR 211951Z 21013KT 10SM BKN250 34/19 A2998 RMK AO2 SLP150 T03440189
KEWR 212051Z 23013G21KT 10SM FEW065 SCT250 35/18 A2997 RMK AO2 SLP150 T03500178 56004
KEWR 212151Z 24011KT 10SM FEW065 FEW250 35/18 A2998 RMK AO2 SLP150 T03500178



Page loaded:  22:51 UTC  |   03:51 PM Pacific  |   04:51 PM Mountain  |   05:51 PM Central  |   06:51 PM Eastern

 

ADVISORIES

FORECASTS

FORECASTS

OBSERVATIONS

USER TOOLS

ABOUT US